Latest Weather Observations for Hamilton Island

IDQ60801

Issued at 6:35 pm EST Monday 21 April 2014 (issued every 30 minutes, with the page automatically refreshed every 10 minutes)

About weather observations | Map of weather stations | Latest weather observations for QLD | Other Formats
Station Details ID: 033106 Name: HAMILTON ISLAND AIRPORT Lat: -20.37 Lon: 148.95 Height: 58.66 m
Data from the previous 72 hours. | See also: Recent months at Hamilton Island
Date/Time
EST
Temp
°C
App
Temp
°C
Dew
Point
Rel
Hum
%
Delta-T
°C
Wind Press
QNH
hPa
Press
MSL
hPa
Rain
since 9 am
mm
Dir
 
Spd
km/h
Gust
km/h
Spd
kts
Gust
kts
21/06:30pm 25.0 20.7 17.0 61 5.0 ESE 35 43 19 23 1017.6 - 0.0
21/06:00pm 25.0 20.8 17.2 62 4.8 ESE 35 43 19 23 1017.5 1017.3 0.0
21/05:30pm 25.1 21.7 18.1 65 4.4 ESE 33 39 18 21 1017.1 - 0.0
21/05:00pm 25.1 21.1 17.6 63 4.7 ESE 35 46 19 25 1016.6 - 0.0
21/04:30pm 25.2 21.1 18.2 65 4.4 ESE 37 44 20 24 1016.2 - 0.0
21/04:00pm 25.5 21.0 17.4 61 5.1 ESE 37 50 20 27 1016.0 - 0.0
21/03:30pm 25.5 21.7 18.2 64 4.6 ESE 35 43 19 23 1016.1 - 0.0
21/03:00pm 26.0 21.5 17.4 59 5.4 ESE 37 41 20 22 1016.2 1016.0 0.0
21/02:30pm 26.2 22.6 17.6 59 5.4 ESE 33 41 18 22 1016.1 - 0.0
21/02:00pm 25.7 21.6 17.4 60 5.2 ESE 35 46 19 25 1016.2 - 0.0
21/01:30pm 26.1 22.9 18.5 63 4.8 ESE 33 41 18 22 1016.6 - 0.0
21/01:00pm 26.5 23.3 18.1 60 5.3 ESE 32 37 17 20 1016.8 - 0.0
21/12:30pm 26.7 23.6 17.5 57 5.8 ESE 30 35 16 19 1017.0 - 0.0
21/12:00pm 26.8 23.4 16.7 54 6.3 ESE 30 35 16 19 1017.3 1017.1 0.0
21/11:30am 26.6 22.5 15.9 51 6.6 ESE 32 41 17 22 1017.6 - 0.0
21/11:00am 26.4 22.7 16.9 56 5.9 E 32 39 17 21 1018.1 - 0.0
21/10:30am 26.4 22.4 16.6 55 6.1 E 33 41 18 22 1018.5 - 0.0
21/10:00am 26.3 21.5 16.5 54 6.1 E 37 44 20 24 1018.5 - 0.0
21/09:30am 25.2 22.4 17.4 62 4.9 ESE 28 35 15 19 1018.5 - 0.0
21/09:00am 25.2 21.4 16.6 59 5.3 ESE 32 37 17 20 1018.4 1018.2 0.0
21/08:30am 25.3 21.1 15.6 55 5.9 ESE 32 37 17 20 1018.2 - 0.0
21/08:00am 25.3 21.3 16.2 57 5.6 E 32 35 17 19 1018.2 - 0.0
21/07:30am 25.3 21.7 16.2 57 5.6 ESE 30 35 16 19 1017.9 - 0.0
21/07:00am 24.7 20.7 16.2 59 5.2 E 32 35 17 19 1017.6 - 0.0
21/06:30am 24.4 20.7 15.9 59 5.2 E 30 35 16 19 1017.4 - 0.0
21/06:00am 24.0 22.3 17.3 66 4.2 ESE 22 26 12 14 1016.9 1016.7 0.0
21/05:30am 24.0 21.4 16.0 61 4.9 ESE 24 30 13 16 1016.7 - 0.0
21/05:00am 24.1 21.5 16.9 64 4.4 ESE 26 32 14 17 1016.5 - 0.0
21/04:30am 24.4 21.8 16.9 63 4.6 ESE 26 32 14 17 1016.3 - 0.0
21/04:00am 24.1 21.6 16.1 61 4.9 ESE 24 28 13 15 1016.2 - 0.0
21/03:30am 23.9 21.8 16.2 62 4.7 ESE 22 28 12 15 1016.2 - 0.0
21/03:00am 24.0 21.6 16.5 63 4.6 ESE 24 28 13 15 1016.2 1016.0 0.0
21/02:30am 24.1 21.8 16.6 63 4.6 ESE 24 30 13 16 1016.1 - 0.0
21/02:00am 24.1 22.5 17.4 66 4.2 ESE 22 28 12 15 1016.4 - 0.0
21/01:30am 24.1 21.8 16.6 63 4.6 ESE 24 30 13 16 1016.7 - 0.0
21/01:00am 24.1 22.1 16.4 62 4.7 ESE 22 28 12 15 1017.0 - 0.0
21/12:30am 24.1 22.3 16.9 64 4.4 ESE 22 28 12 15 1017.2 - 0.0
21/12:00am 24.5 22.0 16.2 60 5.1 ESE 24 30 13 16 1017.5 1017.3 0.0
 
Date/Time
EST
Temp
°C
App
Temp
°C
Dew
Point
Rel
Hum
%
Delta-T
°C
Wind Press
QNH
hPa
Press
MSL
hPa
Rain
since 9 am
mm
Dir
 
Spd
km/h
Gust
km/h
Spd
kts
Gust
kts
20/11:30pm 24.5 21.8 16.5 61 4.9 ESE 26 30 14 16 1017.7 - 0.0
20/11:00pm 24.5 21.4 16.5 61 4.9 ESE 28 33 15 18 1017.8 - 0.0
20/10:30pm 24.5 21.8 16.7 61 4.8 ESE 26 30 14 16 1017.8 - 0.0
20/10:00pm 24.6 22.0 16.8 62 4.8 ESE 26 32 14 17 1017.9 - 0.0
20/09:30pm 24.6 22.0 16.8 62 4.8 ESE 26 32 14 17 1018.0 - 0.0
20/09:00pm 24.9 21.8 16.6 60 5.1 ESE 28 35 15 19 1017.9 1017.7 0.0
20/08:30pm 24.8 21.6 17.3 63 4.7 ESE 30 33 16 18 1017.7 - 0.0
20/08:00pm 24.8 21.3 16.5 60 5.1 ESE 30 35 16 19 1017.5 - 0.0
20/07:30pm 24.9 21.4 16.6 60 5.1 ESE 30 33 16 18 1017.3 - 0.0
20/07:00pm 25.0 21.4 16.2 58 5.4 ESE 30 35 16 19 1016.8 - 0.0
20/06:30pm 24.7 21.4 16.9 62 4.8 ESE 30 35 16 19 1016.5 - 0.0
20/06:00pm 24.8 21.0 16.8 61 4.9 ESE 32 37 17 20 1016.2 1016.0 0.0
20/05:30pm 24.9 21.8 17.6 64 4.6 ESE 30 35 16 19 1015.9 - 0.0
20/05:00pm 25.2 22.3 17.9 64 4.6 ESE 30 33 16 18 1015.7 - 0.0
20/04:30pm 25.4 22.6 17.3 61 5.1 SE 28 35 15 19 1015.5 - 0.0
20/04:00pm 25.6 22.9 16.7 58 5.5 ESE 26 32 14 17 1015.2 - 0.0
20/03:30pm 25.9 23.4 18.1 62 4.9 ESE 28 32 15 17 1015.1 - 0.0
20/03:00pm 26.1 24.1 18.2 61 5.0 ESE 26 33 14 18 1015.1 1014.9 0.0
20/02:30pm 26.2 24.1 18.1 61 5.1 ESE 26 30 14 16 1015.0 - 0.0
20/02:00pm 26.6 24.7 18.5 61 5.2 ESE 26 32 14 17 1015.2 - 0.0
20/01:30pm 26.5 24.8 18.1 60 5.3 ESE 24 30 13 16 1015.4 - 0.0
20/01:00pm 27.0 25.5 18.6 60 5.4 ESE 24 30 13 16 1015.7 - 0.0
20/12:30pm 27.0 26.0 18.8 60 5.3 ESE 22 26 12 14 1016.0 - 0.0
20/12:00pm 27.0 26.1 19.1 62 5.1 ESE 22 26 12 14 1016.3 1016.1 0.0
20/11:30am 26.8 26.0 18.4 60 5.4 ESE 20 24 11 13 1016.7 - 0.0
20/11:00am 25.9 25.8 19.5 68 4.1 SSE 19 22 10 12 1017.0 - 0.0
20/10:30am 26.4 27.1 20.5 70 3.9 SSE 17 22 9 12 1017.3 - 0.0
20/10:00am 26.6 26.1 18.7 62 5.1 ESE 19 24 10 13 1017.4 - 0.0
20/09:30am 26.4 25.7 18.3 61 5.2 ESE 19 22 10 12 1017.4 - 0.0
20/09:00am 26.2 26.4 18.6 63 4.8 ESE 15 19 8 10 1017.2 1017.0 0.0
20/08:30am 25.9 26.2 18.8 65 4.5 ESE 15 20 8 11 1016.9 - 0.0
20/08:00am 25.5 25.4 18.7 66 4.3 SE 17 20 9 11 1016.5 - 0.0
20/07:30am 24.9 25.6 17.9 65 4.4 E 11 19 6 10 1016.2 - 0.0
20/07:00am 23.8 25.3 18.0 70 3.6 E 7 11 4 6 1015.9 - 0.0
20/06:30am 23.2 23.7 17.4 70 3.6 E 11 13 6 7 1015.6 - 0.0
20/06:00am 23.2 24.0 17.2 69 3.7 E 9 13 5 7 1015.5 1015.3 0.0
20/05:30am 23.2 24.0 17.2 69 3.7 E 9 11 5 6 1015.3 - 0.0
20/05:00am 23.1 23.7 16.9 68 3.8 E 9 13 5 7 1015.1 - 0.0
20/04:30am 22.8 23.9 17.0 70 3.6 ENE 7 9 4 5 1015.0 - 0.0
20/04:00am 23.5 24.2 17.0 67 4.0 ENE 9 19 5 10 1014.9 - 0.0
20/03:30am 23.5 23.9 17.3 68 3.8 E 11 15 6 8 1014.9 - 0.0
20/03:00am 23.4 23.0 17.2 68 3.8 ENE 15 17 8 9 1014.9 1014.7 0.0
20/02:30am 23.1 24.3 17.3 70 3.6 E 7 11 4 6 1015.1 - 0.0
20/02:00am 23.1 24.9 17.3 70 3.6 NE 4 9 2 5 1015.3 - 0.0
20/01:30am 23.1 23.8 17.1 69 3.7 ENE 9 11 5 6 1015.3 - 0.0
20/01:00am 23.3 24.4 17.1 68 3.8 NE 7 9 4 5 1015.6 - 0.0
20/12:30am 23.4 24.7 17.2 68 3.8 NE 6 11 3 6 1015.7 - 0.0
20/12:00am 23.5 24.1 16.8 66 4.1 NE 9 13 5 7 1015.8 1015.6 0.0
 
Date/Time
EST
Temp
°C
App
Temp
°C
Dew
Point
Rel
Hum
%
Delta-T
°C
Wind Press
QNH
hPa
Press
MSL
hPa
Rain
since 9 am
mm
Dir
 
Spd
km/h
Gust
km/h
Spd
kts
Gust
kts
19/11:30pm 23.8 23.9 16.6 64 4.4 NE 11 20 6 11 1015.9 - 0.0
19/11:00pm 24.2 22.8 16.5 62 4.7 ENE 19 24 10 13 1016.0 - 0.0
19/10:30pm 24.2 23.2 16.7 63 4.6 ENE 17 22 9 12 1016.1 - 0.0
19/10:00pm 24.4 23.6 16.1 60 5.1 E 15 22 8 12 1016.3 - 0.0
19/09:30pm 24.6 23.4 16.1 59 5.2 E 17 24 9 13 1016.3 - 0.0
19/09:00pm 24.6 23.6 16.6 61 4.9 E 17 24 9 13 1016.3 1016.1 0.0
19/08:30pm 24.6 23.1 16.3 60 5.1 E 19 26 10 14 1016.1 - 0.0
19/08:00pm 24.8 23.3 16.2 58 5.3 E 19 24 10 13 1016.0 - 0.0
19/07:30pm 24.7 23.7 16.7 61 4.9 E 17 20 9 11 1015.7 - 0.0
19/07:00pm 24.5 24.1 17.2 63 4.5 ENE 15 19 8 10 1015.4 - 0.0
19/06:30pm 24.6 24.8 17.6 65 4.4 ENE 13 19 7 10 1015.1 - 0.0
19/06:00pm 24.6 24.6 17.3 64 4.5 ENE 13 20 7 11 1014.8 1014.6 0.0
19/05:30pm 25.1 24.4 17.3 62 4.9 E 17 24 9 13 1014.8 - 0.0
19/05:00pm 25.4 24.3 17.3 61 5.1 E 19 24 10 13 1014.5 - 0.0
19/04:30pm 25.7 24.5 17.6 61 5.1 E 20 26 11 14 1014.4 - 0.0
19/04:00pm 25.7 24.2 17.6 61 5.1 E 22 30 12 16 1014.3 - 0.0
19/03:30pm 25.9 25.0 18.1 62 4.9 E 20 26 11 14 1014.3 - 0.0
19/03:00pm 26.5 25.9 18.4 61 5.2 E 19 24 10 13 1014.5 1014.3 0.0
19/02:30pm 26.3 25.5 17.9 60 5.3 E 19 26 10 14 1014.7 - 0.0
19/02:00pm 26.9 27.1 18.5 60 5.4 E 15 20 8 11 1015.0 - 0.0
19/01:30pm 27.0 27.2 18.6 60 5.4 E 15 22 8 12 1015.3 - 0.0
19/01:00pm 27.3 27.3 18.9 60 5.4 E 17 20 9 11 1015.6 - 0.0
19/12:30pm 26.8 26.6 18.4 60 5.4 E 17 20 9 11 1015.9 - 0.0
19/12:00pm 26.2 25.8 18.1 61 5.1 E 17 20 9 11 1016.4 1016.2 0.0
19/11:30am 27.2 27.5 19.5 62 5.0 E 17 20 9 11 1016.7 - 0.0
19/11:00am 27.4 28.6 20.0 64 4.8 E 13 19 7 10 1017.2 - 0.0
19/10:30am 27.1 27.6 19.2 62 5.1 E 15 20 8 11 1017.4 - 0.0
19/10:00am 27.1 27.2 19.2 62 5.1 E 17 24 9 13 1017.5 - 0.0
19/09:30am 27.4 28.1 18.9 59 5.5 E 13 20 7 11 1017.6 - 0.0
19/09:00am 26.9 27.8 18.5 60 5.4 ENE 11 19 6 10 1017.4 1017.2 0.0
19/08:30am 26.9 28.3 18.7 60 5.3 NE 9 13 5 7 1017.3 - 0.0
19/08:00am 26.6 28.5 19.0 63 4.9 NE 7 11 4 6 1017.0 - 0.0
19/07:30am 25.4 27.8 18.8 67 4.2 NNE 4 7 2 4 1017.0 - 0.0
19/07:00am 23.8 26.0 19.1 75 3.0 NNE 6 9 3 5 1016.8 - 0.0
19/06:30am 23.6 25.5 18.9 75 3.0 NNE 7 9 4 5 1016.7 - 0.0
19/06:00am 23.2 26.6 19.4 79 2.4 CALM 0 0 0 0 1016.5 1016.3 0.0
19/05:30am 23.7 25.9 19.2 76 2.9 NNE 6 9 3 5 1016.1 - 0.0
19/05:00am 23.4 25.4 19.1 77 2.7 NNE 7 9 4 5 1015.8 - 0.0
19/04:30am 23.5 25.5 19.2 77 2.7 NE 7 9 4 5 1015.6 - 0.0
19/04:00am 23.8 27.2 19.3 76 2.9 CALM 0 6 0 3 1015.5 - 0.0
19/03:30am 23.8 26.7 19.1 75 3.0 NE 2 7 1 4 1015.5 - 0.0
19/03:00am 23.7 25.3 19.2 76 2.9 ENE 9 13 5 7 1015.6 1015.4 0.0
19/02:30am 23.8 27.1 19.1 75 3.0 CALM 0 0 0 0 1015.8 - 0.0
19/02:00am 23.9 27.2 19.2 75 3.0 CALM 0 0 0 0 1016.1 - 0.0
19/01:30am 24.0 25.8 19.5 76 2.9 N 9 11 5 6 1016.4 - 0.0
19/01:00am 23.9 25.2 19.4 76 2.9 NNE 11 15 6 8 1016.5 - 0.0
19/12:30am 23.8 26.1 19.5 77 2.8 NNE 6 7 3 4 1016.8 - 0.0
19/12:00am 23.6 25.9 19.9 80 2.4 N 7 11 4 6 1016.9 1016.7 0.0
 
Date/Time
EST
Temp
°C
App
Temp
°C
Dew
Point
Rel
Hum
%
Delta-T
°C
Wind Press
QNH
hPa
Press
MSL
hPa
Rain
since 9 am
mm
Dir
 
Spd
km/h
Gust
km/h
Spd
kts
Gust
kts
18/11:30pm 23.4 26.1 20.3 83 2.0 NNW 6 7 3 4 1017.0 - 0.0
18/11:00pm 23.7 26.7 20.0 80 2.4 N 4 7 2 4 1017.1 - 0.0
18/10:30pm 24.2 26.4 19.5 75 3.0 NNE 7 9 4 5 1017.3 - 0.0
18/10:00pm 24.1 25.7 19.2 74 3.1 NE 9 11 5 6 1017.3 - 0.0
18/09:30pm 24.2 26.3 19.3 74 3.1 NE 7 9 4 5 1017.2 - 0.0
18/09:00pm 24.5 25.7 19.1 72 3.5 NE 11 15 6 8 1017.1 1016.9 0.0
18/08:30pm 24.5 26.2 19.3 73 3.3 NE 9 13 5 7 1016.9 - 0.0
18/08:00pm 24.8 25.9 19.6 73 3.4 ENE 13 19 7 10 1016.6 - 0.0
18/07:30pm 24.9 25.1 19.3 71 3.6 ENE 17 22 9 12 1016.2 - 0.0
18/07:00pm 25.0 25.4 19.8 73 3.4 ENE 17 20 9 11 1015.8 - 0.0

Other Formats:

Comma delimited format used in spreadsheet applications
http://www.bom.gov.au/fwo/IDQ60801/IDQ60801.94368.axf

JavaScript Object Notation format (JSON) in row-major order
http://www.bom.gov.au/fwo/IDQ60801/IDQ60801.94368.json